Sible Hedingham, United Kingdom
Current Conditions -  °F | °C
As of 7:20 AM on Wednesday 22 Oct 2014 (Local Time) from EGSS Reporting Station
Clear Clear  
Wind Chill: 39°   Ceiling: Unl
Heat Index: 45°   Visibility: 6mi
Dew Point: 39°   Wind: 12mph
Humidity: 81%   Direction: 290°WNW
Pressure: 30.21"   Gusts: NA
Location:  51.98°N, 0.59°E
Report Text: EGSS 220620Z 29010KT CAVOK 07/04 Q1023
Loading
Personal Weather Stations






























Interactive Weather Map
Tropical Storm Tracking
New forecast layout! Learn more

10-Day Weather Forecast

Advertisements
Track Severe Weather on mobile